sensor_id;sensor_type;location;lat;lon;timestamp;temperature;humidity
16635;DHT22;8431;52.458;9.998;2023-09-19T00:00:25;14.80;99.90
16635;DHT22;8431;52.458;9.998;2023-09-19T00:02:53;14.90;99.90
16635;DHT22;8431;52.458;9.998;2023-09-19T00:05:20;14.90;99.90
16635;DHT22;8431;52.458;9.998;2023-09-19T00:07:50;14.90;99.90
16635;DHT22;8431;52.458;9.998;2023-09-19T00:10:19;14.90;99.90
16635;DHT22;8431;52.458;9.998;2023-09-19T00:12:47;15.00;99.90
16635;DHT22;8431;52.458;9.998;2023-09-19T00:15:15;15.20;99.90
16635;DHT22;8431;52.458;9.998;2023-09-19T00:17:43;15.20;99.90
16635;DHT22;8431;52.458;9.998;2023-09-19T00:20:11;15.30;99.90
16635;DHT22;8431;52.458;9.998;2023-09-19T00:22:42;15.30;99.90
16635;DHT22;8431;52.458;9.998;2023-09-19T00:25:09;15.40;99.90
16635;DHT22;8431;52.458;9.998;2023-09-19T00:27:37;15.50;99.90
16635;DHT22;8431;52.458;9.998;2023-09-19T00:30:08;15.40;99.90
16635;DHT22;8431;52.458;9.998;2023-09-19T00:32:41;15.30;99.90
16635;DHT22;8431;52.458;9.998;2023-09-19T00:35:11;15.20;99.90
16635;DHT22;8431;52.458;9.998;2023-09-19T00:37:38;15.00;99.90
16635;DHT22;8431;52.458;9.998;2023-09-19T00:40:06;14.80;99.90
16635;DHT22;8431;52.458;9.998;2023-09-19T00:42:36;14.80;99.90
16635;DHT22;8431;52.458;9.998;2023-09-19T00:45:05;14.70;99.90
16635;DHT22;8431;52.458;9.998;2023-09-19T00:47:32;14.80;99.90
16635;DHT22;8431;52.458;9.998;2023-09-19T00:50:00;14.70;99.90
16635;DHT22;8431;52.458;9.998;2023-09-19T00:52:28;14.70;99.90
16635;DHT22;8431;52.458;9.998;2023-09-19T00:54:57;14.80;99.90
16635;DHT22;8431;52.458;9.998;2023-09-19T00:57:25;14.80;99.90
16635;DHT22;8431;52.458;9.998;2023-09-19T00:59:54;14.90;99.90
16635;DHT22;8431;52.458;9.998;2023-09-19T01:02:21;15.00;99.90
16635;DHT22;8431;52.458;9.998;2023-09-19T01:04:48;15.00;99.90
16635;DHT22;8431;52.458;9.998;2023-09-19T01:07:17;15.10;99.90
16635;DHT22;8431;52.458;9.998;2023-09-19T01:09:50;15.30;99.90
16635;DHT22;8431;52.458;9.998;2023-09-19T01:12:24;15.20;99.90
16635;DHT22;8431;52.458;9.998;2023-09-19T01:14:59;15.20;99.90
16635;DHT22;8431;52.458;9.998;2023-09-19T01:17:32;15.20;99.90
16635;DHT22;8431;52.458;9.998;2023-09-19T01:20:14;15.30;99.90
16635;DHT22;8431;52.458;9.998;2023-09-19T01:22:54;15.20;99.90
16635;DHT22;8431;52.458;9.998;2023-09-19T01:25:42;15.30;99.90
16635;DHT22;8431;52.458;9.998;2023-09-19T01:28:31;15.30;99.90
16635;DHT22;8431;52.458;9.998;2023-09-19T01:31:04;15.30;99.90
16635;DHT22;8431;52.458;9.998;2023-09-19T01:33:56;15.40;99.90
16635;DHT22;8431;52.458;9.998;2023-09-19T01:36:25;15.40;99.90
16635;DHT22;8431;52.458;9.998;2023-09-19T01:38:53;15.40;99.90
16635;DHT22;8431;52.458;9.998;2023-09-19T01:41:26;15.50;99.90
16635;DHT22;8431;52.458;9.998;2023-09-19T01:43:55;15.40;99.90
16635;DHT22;8431;52.458;9.998;2023-09-19T01:46:28;15.40;99.90
16635;DHT22;8431;52.458;9.998;2023-09-19T01:49:03;15.40;99.90
16635;DHT22;8431;52.458;9.998;2023-09-19T01:51:37;15.50;99.90
16635;DHT22;8431;52.458;9.998;2023-09-19T01:54:10;15.40;99.90
16635;DHT22;8431;52.458;9.998;2023-09-19T01:56:42;15.50;99.90
16635;DHT22;8431;52.458;9.998;2023-09-19T01:59:14;15.50;99.90
16635;DHT22;8431;52.458;9.998;2023-09-19T02:01:45;15.50;99.90
16635;DHT22;8431;52.458;9.998;2023-09-19T02:04:12;15.30;99.90
16635;DHT22;8431;52.458;9.998;2023-09-19T02:06:40;15.50;99.90
16635;DHT22;8431;52.458;9.998;2023-09-19T02:09:07;15.40;99.90
16635;DHT22;8431;52.458;9.998;2023-09-19T02:11:34;15.30;99.90
16635;DHT22;8431;52.458;9.998;2023-09-19T02:14:02;15.40;99.90
16635;DHT22;8431;52.458;9.998;2023-09-19T02:16:30;15.40;99.90
16635;DHT22;8431;52.458;9.998;2023-09-19T02:18:58;15.20;99.90
16635;DHT22;8431;52.458;9.998;2023-09-19T02:21:26;15.20;99.90
16635;DHT22;8431;52.458;9.998;2023-09-19T02:23:54;15.20;99.90
16635;DHT22;8431;52.458;9.998;2023-09-19T02:26:21;15.60;99.90
16635;DHT22;8431;52.458;9.998;2023-09-19T02:28:50;15.60;99.90
16635;DHT22;8431;52.458;9.998;2023-09-19T02:31:18;15.80;99.90
16635;DHT22;8431;52.458;9.998;2023-09-19T02:33:45;15.80;99.90
16635;DHT22;8431;52.458;9.998;2023-09-19T02:36:13;15.80;99.90
16635;DHT22;8431;52.458;9.998;2023-09-19T02:38:42;15.80;99.90
16635;DHT22;8431;52.458;9.998;2023-09-19T02:41:09;15.90;99.90
16635;DHT22;8431;52.458;9.998;2023-09-19T02:43:37;15.90;99.90
16635;DHT22;8431;52.458;9.998;2023-09-19T02:46:04;15.80;99.90
16635;DHT22;8431;52.458;9.998;2023-09-19T02:48:31;16.00;99.90
16635;DHT22;8431;52.458;9.998;2023-09-19T02:51:00;15.90;99.90
16635;DHT22;8431;52.458;9.998;2023-09-19T02:53:28;15.90;99.90
16635;DHT22;8431;52.458;9.998;2023-09-19T02:55:56;15.90;99.90
16635;DHT22;8431;52.458;9.998;2023-09-19T02:58:24;15.80;99.90
16635;DHT22;8431;52.458;9.998;2023-09-19T03:00:53;15.80;99.90
16635;DHT22;8431;52.458;9.998;2023-09-19T03:03:20;15.60;99.90
16635;DHT22;8431;52.458;9.998;2023-09-19T03:05:48;15.60;99.90
16635;DHT22;8431;52.458;9.998;2023-09-19T03:08:17;15.60;99.90
16635;DHT22;8431;52.458;9.998;2023-09-19T03:10:47;15.60;99.90
16635;DHT22;8431;52.458;9.998;2023-09-19T03:13:14;15.70;99.90
16635;DHT22;8431;52.458;9.998;2023-09-19T03:15:41;15.70;99.90
16635;DHT22;8431;52.458;9.998;2023-09-19T03:18:12;15.70;99.90
16635;DHT22;8431;52.458;9.998;2023-09-19T03:20:38;15.60;99.90
16635;DHT22;8431;52.458;9.998;2023-09-19T03:23:05;15.60;99.90
16635;DHT22;8431;52.458;9.998;2023-09-19T03:25:34;15.80;99.90
16635;DHT22;8431;52.458;9.998;2023-09-19T03:28:03;15.70;99.90
16635;DHT22;8431;52.458;9.998;2023-09-19T03:30:31;15.60;99.90
16635;DHT22;8431;52.458;9.998;2023-09-19T03:32:59;15.40;99.90
16635;DHT22;8431;52.458;9.998;2023-09-19T03:35:26;15.40;99.90
16635;DHT22;8431;52.458;9.998;2023-09-19T03:37:53;15.40;99.90
16635;DHT22;8431;52.458;9.998;2023-09-19T03:40:20;15.30;99.90
16635;DHT22;8431;52.458;9.998;2023-09-19T03:42:47;15.20;99.90
16635;DHT22;8431;52.458;9.998;2023-09-19T03:45:15;15.20;99.90
16635;DHT22;8431;52.458;9.998;2023-09-19T03:47:44;15.10;99.90
16635;DHT22;8431;52.458;9.998;2023-09-19T03:50:12;14.90;99.90
16635;DHT22;8431;52.458;9.998;2023-09-19T03:52:41;14.90;99.90
16635;DHT22;8431;52.458;9.998;2023-09-19T03:55:08;14.90;99.90
16635;DHT22;8431;52.458;9.998;2023-09-19T03:57:35;14.90;99.90
16635;DHT22;8431;52.458;9.998;2023-09-19T04:00:02;14.80;99.90
16635;DHT22;8431;52.458;9.998;2023-09-19T04:02:32;14.70;99.90
16635;DHT22;8431;52.458;9.998;2023-09-19T04:05:00;14.50;99.90
16635;DHT22;8431;52.458;9.998;2023-09-19T04:07:27;14.60;99.90
16635;DHT22;8431;52.458;9.998;2023-09-19T04:09:54;14.80;99.90
16635;DHT22;8431;52.458;9.998;2023-09-19T04:12:21;14.80;99.90
16635;DHT22;8431;52.458;9.998;2023-09-19T04:14:48;14.70;99.90
16635;DHT22;8431;52.458;9.998;2023-09-19T04:17:15;14.60;99.90
16635;DHT22;8431;52.458;9.998;2023-09-19T04:19:45;14.70;99.90
16635;DHT22;8431;52.458;9.998;2023-09-19T04:22:12;14.70;99.90
16635;DHT22;8431;52.458;9.998;2023-09-19T04:24:39;14.60;99.90
16635;DHT22;8431;52.458;9.998;2023-09-19T04:27:06;14.40;99.90
16635;DHT22;8431;52.458;9.998;2023-09-19T04:29:33;14.30;99.90
16635;DHT22;8431;52.458;9.998;2023-09-19T04:32:00;14.30;99.90
16635;DHT22;8431;52.458;9.998;2023-09-19T04:34:30;14.30;99.90
16635;DHT22;8431;52.458;9.998;2023-09-19T04:36:58;14.40;99.90
16635;DHT22;8431;52.458;9.998;2023-09-19T04:39:26;14.30;99.90
16635;DHT22;8431;52.458;9.998;2023-09-19T04:41:55;14.10;99.90
16635;DHT22;8431;52.458;9.998;2023-09-19T04:44:22;14.00;99.90
16635;DHT22;8431;52.458;9.998;2023-09-19T04:46:49;14.00;99.90
16635;DHT22;8431;52.458;9.998;2023-09-19T04:49:16;13.90;99.90
16635;DHT22;8431;52.458;9.998;2023-09-19T04:51:43;13.90;99.90
16635;DHT22;8431;52.458;9.998;2023-09-19T04:54:13;14.00;99.90
16635;DHT22;8431;52.458;9.998;2023-09-19T04:56:40;14.00;99.90
16635;DHT22;8431;52.458;9.998;2023-09-19T04:59:07;14.00;99.90
16635;DHT22;8431;52.458;9.998;2023-09-19T05:01:36;14.00;99.90
16635;DHT22;8431;52.458;9.998;2023-09-19T05:04:03;14.10;99.90
16635;DHT22;8431;52.458;9.998;2023-09-19T05:06:30;14.10;99.90
16635;DHT22;8431;52.458;9.998;2023-09-19T05:09:01;14.20;99.90
16635;DHT22;8431;52.458;9.998;2023-09-19T05:11:32;14.10;99.90
16635;DHT22;8431;52.458;9.998;2023-09-19T05:13:59;14.30;99.90
16635;DHT22;8431;52.458;9.998;2023-09-19T05:16:29;14.40;99.90
16635;DHT22;8431;52.458;9.998;2023-09-19T05:19:02;14.30;99.90
16635;DHT22;8431;52.458;9.998;2023-09-19T05:21:37;14.30;99.90
16635;DHT22;8431;52.458;9.998;2023-09-19T05:24:05;14.20;99.90
16635;DHT22;8431;52.458;9.998;2023-09-19T05:26:33;14.20;99.90
16635;DHT22;8431;52.458;9.998;2023-09-19T05:29:00;14.20;99.90
16635;DHT22;8431;52.458;9.998;2023-09-19T05:31:39;14.20;99.90
16635;DHT22;8431;52.458;9.998;2023-09-19T05:34:08;14.00;99.90
16635;DHT22;8431;52.458;9.998;2023-09-19T05:36:35;14.10;99.90
16635;DHT22;8431;52.458;9.998;2023-09-19T05:39:02;14.20;99.90
16635;DHT22;8431;52.458;9.998;2023-09-19T05:41:30;14.20;99.90
16635;DHT22;8431;52.458;9.998;2023-09-19T05:43:58;14.30;99.90
16635;DHT22;8431;52.458;9.998;2023-09-19T05:46:26;14.30;99.90
16635;DHT22;8431;52.458;9.998;2023-09-19T05:48:55;14.40;99.90
16635;DHT22;8431;52.458;9.998;2023-09-19T05:51:22;14.40;99.90
16635;DHT22;8431;52.458;9.998;2023-09-19T05:53:50;14.40;99.90
16635;DHT22;8431;52.458;9.998;2023-09-19T05:56:20;14.40;99.90
16635;DHT22;8431;52.458;9.998;2023-09-19T05:58:47;14.50;99.90
16635;DHT22;8431;52.458;9.998;2023-09-19T06:01:14;14.90;99.90
16635;DHT22;8431;52.458;9.998;2023-09-19T06:03:41;14.90;99.90
16635;DHT22;8431;52.458;9.998;2023-09-19T06:06:08;14.90;99.90
16635;DHT22;8431;52.458;9.998;2023-09-19T06:08:35;14.80;99.90
16635;DHT22;8431;52.458;9.998;2023-09-19T06:11:02;14.80;99.90
16635;DHT22;8431;52.458;9.998;2023-09-19T06:13:30;14.70;99.90
16635;DHT22;8431;52.458;9.998;2023-09-19T06:15:59;14.60;99.90
16635;DHT22;8431;52.458;9.998;2023-09-19T06:18:30;14.50;99.90
16635;DHT22;8431;52.458;9.998;2023-09-19T06:20:59;14.50;99.90
16635;DHT22;8431;52.458;9.998;2023-09-19T06:23:26;14.50;99.90
16635;DHT22;8431;52.458;9.998;2023-09-19T06:25:54;14.60;99.90
16635;DHT22;8431;52.458;9.998;2023-09-19T06:28:21;14.60;99.90
16635;DHT22;8431;52.458;9.998;2023-09-19T06:30:51;14.50;99.90
16635;DHT22;8431;52.458;9.998;2023-09-19T06:33:19;14.40;99.90
16635;DHT22;8431;52.458;9.998;2023-09-19T06:35:48;14.50;99.90
16635;DHT22;8431;52.458;9.998;2023-09-19T06:38:18;14.50;99.90
16635;DHT22;8431;52.458;9.998;2023-09-19T06:40:45;14.60;99.90
16635;DHT22;8431;52.458;9.998;2023-09-19T06:43:12;14.70;99.90
16635;DHT22;8431;52.458;9.998;2023-09-19T06:45:39;14.70;99.90
16635;DHT22;8431;52.458;9.998;2023-09-19T06:48:06;14.70;99.90
16635;DHT22;8431;52.458;9.998;2023-09-19T06:50:35;14.70;99.90
16635;DHT22;8431;52.458;9.998;2023-09-19T06:53:04;14.80;99.90
16635;DHT22;8431;52.458;9.998;2023-09-19T06:55:31;14.80;99.90
16635;DHT22;8431;52.458;9.998;2023-09-19T06:57:57;14.80;99.90
16635;DHT22;8431;52.458;9.998;2023-09-19T07:00:24;14.90;99.90
16635;DHT22;8431;52.458;9.998;2023-09-19T07:02:56;14.90;99.90
16635;DHT22;8431;52.458;9.998;2023-09-19T07:05:24;15.00;99.90
16635;DHT22;8431;52.458;9.998;2023-09-19T07:07:53;15.00;99.90
16635;DHT22;8431;52.458;9.998;2023-09-19T07:10:22;15.00;99.90
16635;DHT22;8431;52.458;9.998;2023-09-19T07:12:55;15.10;99.90
16635;DHT22;8431;52.458;9.998;2023-09-19T07:15:23;15.10;99.90
16635;DHT22;8431;52.458;9.998;2023-09-19T07:17:51;15.10;99.90
16635;DHT22;8431;52.458;9.998;2023-09-19T07:20:19;15.10;99.90
16635;DHT22;8431;52.458;9.998;2023-09-19T07:22:46;15.00;99.90
16635;DHT22;8431;52.458;9.998;2023-09-19T07:25:14;15.10;99.90
16635;DHT22;8431;52.458;9.998;2023-09-19T07:27:42;15.20;99.90
16635;DHT22;8431;52.458;9.998;2023-09-19T07:30:10;15.10;99.90
16635;DHT22;8431;52.458;9.998;2023-09-19T07:32:37;15.30;99.90
16635;DHT22;8431;52.458;9.998;2023-09-19T07:35:05;15.30;99.90
16635;DHT22;8431;52.458;9.998;2023-09-19T07:37:32;15.30;99.90
16635;DHT22;8431;52.458;9.998;2023-09-19T07:40:00;15.30;99.90
16635;DHT22;8431;52.458;9.998;2023-09-19T07:42:42;15.40;99.90
16635;DHT22;8431;52.458;9.998;2023-09-19T07:45:10;15.40;99.90
16635;DHT22;8431;52.458;9.998;2023-09-19T07:47:40;15.40;99.90
16635;DHT22;8431;52.458;9.998;2023-09-19T07:50:08;15.40;99.90
16635;DHT22;8431;52.458;9.998;2023-09-19T07:52:35;15.50;99.90
16635;DHT22;8431;52.458;9.998;2023-09-19T07:55:05;15.60;99.90
16635;DHT22;8431;52.458;9.998;2023-09-19T07:57:34;15.70;99.90
16635;DHT22;8431;52.458;9.998;2023-09-19T08:00:05;15.80;99.90
16635;DHT22;8431;52.458;9.998;2023-09-19T08:02:34;15.80;99.90
16635;DHT22;8431;52.458;9.998;2023-09-19T08:05:04;15.80;99.90
16635;DHT22;8431;52.458;9.998;2023-09-19T08:07:35;15.80;99.90
16635;DHT22;8431;52.458;9.998;2023-09-19T08:10:03;15.90;99.90
16635;DHT22;8431;52.458;9.998;2023-09-19T08:12:30;15.90;99.90
16635;DHT22;8431;52.458;9.998;2023-09-19T08:14:58;15.80;99.90
16635;DHT22;8431;52.458;9.998;2023-09-19T08:17:26;15.90;99.90
16635;DHT22;8431;52.458;9.998;2023-09-19T08:19:53;16.10;99.90
16635;DHT22;8431;52.458;9.998;2023-09-19T08:22:20;16.20;99.90
16635;DHT22;8431;52.458;9.998;2023-09-19T08:24:47;16.10;99.90
16635;DHT22;8431;52.458;9.998;2023-09-19T08:27:14;16.10;99.90
16635;DHT22;8431;52.458;9.998;2023-09-19T08:29:44;16.10;99.90
16635;DHT22;8431;52.458;9.998;2023-09-19T08:32:12;16.20;99.90
16635;DHT22;8431;52.458;9.998;2023-09-19T08:34:40;16.20;99.90
16635;DHT22;8431;52.458;9.998;2023-09-19T08:37:07;16.30;99.90
16635;DHT22;8431;52.458;9.998;2023-09-19T08:39:34;16.30;99.90
16635;DHT22;8431;52.458;9.998;2023-09-19T08:42:03;16.20;99.90
16635;DHT22;8431;52.458;9.998;2023-09-19T08:44:30;16.30;99.90
16635;DHT22;8431;52.458;9.998;2023-09-19T08:47:30;16.30;99.90
16635;DHT22;8431;52.458;9.998;2023-09-19T08:50:13;16.40;99.90
16635;DHT22;8431;52.458;9.998;2023-09-19T08:52:43;16.60;99.90
16635;DHT22;8431;52.458;9.998;2023-09-19T08:55:12;16.70;99.90
16635;DHT22;8431;52.458;9.998;2023-09-19T08:57:46;16.70;99.90
16635;DHT22;8431;52.458;9.998;2023-09-19T09:00:16;16.60;99.90
16635;DHT22;8431;52.458;9.998;2023-09-19T09:02:47;16.60;99.90
16635;DHT22;8431;52.458;9.998;2023-09-19T09:05:16;16.60;99.90
16635;DHT22;8431;52.458;9.998;2023-09-19T09:07:48;16.60;99.90
16635;DHT22;8431;52.458;9.998;2023-09-19T09:10:17;16.60;99.90
16635;DHT22;8431;52.458;9.998;2023-09-19T09:12:48;16.60;99.90
16635;DHT22;8431;52.458;9.998;2023-09-19T09:15:16;16.70;99.90
16635;DHT22;8431;52.458;9.998;2023-09-19T09:17:46;16.70;99.90
16635;DHT22;8431;52.458;9.998;2023-09-19T09:20:15;16.70;99.90
16635;DHT22;8431;52.458;9.998;2023-09-19T09:22:50;16.80;99.90
16635;DHT22;8431;52.458;9.998;2023-09-19T09:25:17;16.70;99.90
16635;DHT22;8431;52.458;9.998;2023-09-19T09:27:47;16.80;99.90
16635;DHT22;8431;52.458;9.998;2023-09-19T09:30:33;16.80;99.90
16635;DHT22;8431;52.458;9.998;2023-09-19T09:33:11;17.00;99.90
16635;DHT22;8431;52.458;9.998;2023-09-19T09:35:47;16.90;99.90
16635;DHT22;8431;52.458;9.998;2023-09-19T09:38:18;16.90;99.90
16635;DHT22;8431;52.458;9.998;2023-09-19T09:40:50;17.10;99.90
16635;DHT22;8431;52.458;9.998;2023-09-19T09:43:30;17.20;99.90
16635;DHT22;8431;52.458;9.998;2023-09-19T09:46:12;17.10;99.90
16635;DHT22;8431;52.458;9.998;2023-09-19T09:48:57;17.10;99.90
16635;DHT22;8431;52.458;9.998;2023-09-19T09:51:40;17.10;99.90
16635;DHT22;8431;52.458;9.998;2023-09-19T09:54:12;17.10;99.90
16635;DHT22;8431;52.458;9.998;2023-09-19T09:56:53;17.20;99.90
16635;DHT22;8431;52.458;9.998;2023-09-19T09:59:44;17.30;99.90
16635;DHT22;8431;52.458;9.998;2023-09-19T10:02:13;17.50;99.90
16635;DHT22;8431;52.458;9.998;2023-09-19T10:04:46;17.50;99.90
16635;DHT22;8431;52.458;9.998;2023-09-19T10:07:26;17.40;99.90
16635;DHT22;8431;52.458;9.998;2023-09-19T10:10:01;17.60;99.90
16635;DHT22;8431;52.458;9.998;2023-09-19T10:12:43;17.70;99.90
16635;DHT22;8431;52.458;9.998;2023-09-19T10:15:15;17.80;99.90
16635;DHT22;8431;52.458;9.998;2023-09-19T10:17:44;17.70;99.90
16635;DHT22;8431;52.458;9.998;2023-09-19T10:20:15;17.70;99.90
16635;DHT22;8431;52.458;9.998;2023-09-19T10:23:06;17.80;99.90
16635;DHT22;8431;52.458;9.998;2023-09-19T10:25:39;17.80;99.90
16635;DHT22;8431;52.458;9.998;2023-09-19T10:28:07;18.00;99.90
16635;DHT22;8431;52.458;9.998;2023-09-19T10:30:37;17.90;99.90
16635;DHT22;8431;52.458;9.998;2023-09-19T10:33:05;18.00;99.90
16635;DHT22;8431;52.458;9.998;2023-09-19T10:35:33;17.90;99.90
16635;DHT22;8431;52.458;9.998;2023-09-19T10:38:01;17.90;99.90
16635;DHT22;8431;52.458;9.998;2023-09-19T10:40:30;17.80;99.90
16635;DHT22;8431;52.458;9.998;2023-09-19T10:43:01;18.00;99.90
16635;DHT22;8431;52.458;9.998;2023-09-19T10:45:30;18.10;99.90
16635;DHT22;8431;52.458;9.998;2023-09-19T10:47:58;18.10;99.90
16635;DHT22;8431;52.458;9.998;2023-09-19T10:50:26;17.90;99.90
16635;DHT22;8431;52.458;9.998;2023-09-19T10:52:59;18.00;99.90
16635;DHT22;8431;52.458;9.998;2023-09-19T10:55:32;18.00;99.90
16635;DHT22;8431;52.458;9.998;2023-09-19T10:58:01;18.30;99.90
16635;DHT22;8431;52.458;9.998;2023-09-19T11:00:51;18.30;99.90
16635;DHT22;8431;52.458;9.998;2023-09-19T11:03:20;18.40;99.90
16635;DHT22;8431;52.458;9.998;2023-09-19T11:06:14;18.30;99.90
16635;DHT22;8431;52.458;9.998;2023-09-19T11:09:01;18.20;99.90
16635;DHT22;8431;52.458;9.998;2023-09-19T11:11:53;18.40;99.90
16635;DHT22;8431;52.458;9.998;2023-09-19T11:14:30;18.30;99.90
16635;DHT22;8431;52.458;9.998;2023-09-19T11:20:30;18.40;99.90
16635;DHT22;8431;52.458;9.998;2023-09-19T11:23:32;18.20;99.90
16635;DHT22;8431;52.458;9.998;2023-09-19T11:26:02;18.20;99.90
16635;DHT22;8431;52.458;9.998;2023-09-19T11:28:35;18.30;99.90
16635;DHT22;8431;52.458;9.998;2023-09-19T11:34:45;18.50;99.90
16635;DHT22;8431;52.458;9.998;2023-09-19T11:40:28;18.50;99.90
16635;DHT22;8431;52.458;9.998;2023-09-19T11:42:56;18.40;99.90
16635;DHT22;8431;52.458;9.998;2023-09-19T11:46:02;18.40;99.90
16635;DHT22;8431;52.458;9.998;2023-09-19T11:48:32;18.30;99.90
16635;DHT22;8431;52.458;9.998;2023-09-19T11:51:00;18.40;99.90
16635;DHT22;8431;52.458;9.998;2023-09-19T11:53:33;18.50;99.90
16635;DHT22;8431;52.458;9.998;2023-09-19T11:56:24;18.70;99.90
16635;DHT22;8431;52.458;9.998;2023-09-19T11:58:54;18.80;99.90
16635;DHT22;8431;52.458;9.998;2023-09-19T12:01:25;18.90;99.90
16635;DHT22;8431;52.458;9.998;2023-09-19T12:03:55;18.90;99.90
16635;DHT22;8431;52.458;9.998;2023-09-19T12:06:24;18.90;99.90
16635;DHT22;8431;52.458;9.998;2023-09-19T12:08:51;18.80;99.90
16635;DHT22;8431;52.458;9.998;2023-09-19T12:11:21;18.80;99.90
16635;DHT22;8431;52.458;9.998;2023-09-19T12:13:49;18.80;99.90
16635;DHT22;8431;52.458;9.998;2023-09-19T12:16:17;18.90;99.90
16635;DHT22;8431;52.458;9.998;2023-09-19T12:18:49;19.00;99.90
16635;DHT22;8431;52.458;9.998;2023-09-19T12:21:27;19.00;99.90
16635;DHT22;8431;52.458;9.998;2023-09-19T12:24:09;19.00;99.90
16635;DHT22;8431;52.458;9.998;2023-09-19T12:26:43;18.80;99.90
16635;DHT22;8431;52.458;9.998;2023-09-19T12:29:13;18.80;99.90
16635;DHT22;8431;52.458;9.998;2023-09-19T12:31:53;18.90;99.90
16635;DHT22;8431;52.458;9.998;2023-09-19T12:34:29;18.80;99.90
16635;DHT22;8431;52.458;9.998;2023-09-19T12:37:10;18.60;99.90
16635;DHT22;8431;52.458;9.998;2023-09-19T12:39:45;18.60;99.90
16635;DHT22;8431;52.458;9.998;2023-09-19T12:42:15;18.50;99.90
16635;DHT22;8431;52.458;9.998;2023-09-19T12:44:43;18.40;99.90
16635;DHT22;8431;52.458;9.998;2023-09-19T12:47:11;18.40;99.90
16635;DHT22;8431;52.458;9.998;2023-09-19T12:50:12;18.60;99.90
16635;DHT22;8431;52.458;9.998;2023-09-19T12:52:45;18.60;99.90
16635;DHT22;8431;52.458;9.998;2023-09-19T12:55:23;18.90;99.90
16635;DHT22;8431;52.458;9.998;2023-09-19T12:58:06;18.70;99.90
16635;DHT22;8431;52.458;9.998;2023-09-19T13:00:40;18.60;99.90
16635;DHT22;8431;52.458;9.998;2023-09-19T13:03:18;18.70;99.90
16635;DHT22;8431;52.458;9.998;2023-09-19T13:05:55;18.80;99.90
16635;DHT22;8431;52.458;9.998;2023-09-19T13:08:27;18.70;99.90
16635;DHT22;8431;52.458;9.998;2023-09-19T13:11:03;18.80;99.90
16635;DHT22;8431;52.458;9.998;2023-09-19T13:13:32;18.80;99.90
16635;DHT22;8431;52.458;9.998;2023-09-19T13:16:01;18.70;99.90
16635;DHT22;8431;52.458;9.998;2023-09-19T13:18:30;18.90;99.90
16635;DHT22;8431;52.458;9.998;2023-09-19T13:21:09;19.00;99.90
16635;DHT22;8431;52.458;9.998;2023-09-19T13:23:38;19.30;99.90
16635;DHT22;8431;52.458;9.998;2023-09-19T13:26:05;19.40;99.90
16635;DHT22;8431;52.458;9.998;2023-09-19T13:28:33;19.00;99.90
16635;DHT22;8431;52.458;9.998;2023-09-19T13:31:00;19.10;99.90
16635;DHT22;8431;52.458;9.998;2023-09-19T13:33:27;19.00;99.90
16635;DHT22;8431;52.458;9.998;2023-09-19T13:35:54;19.10;99.90
16635;DHT22;8431;52.458;9.998;2023-09-19T13:38:23;19.20;99.90
16635;DHT22;8431;52.458;9.998;2023-09-19T13:40:50;19.20;99.90
16635;DHT22;8431;52.458;9.998;2023-09-19T13:43:18;19.20;99.90
16635;DHT22;8431;52.458;9.998;2023-09-19T13:45:45;19.10;99.90
16635;DHT22;8431;52.458;9.998;2023-09-19T13:48:12;19.10;99.90
16635;DHT22;8431;52.458;9.998;2023-09-19T13:50:40;19.20;99.90
16635;DHT22;8431;52.458;9.998;2023-09-19T13:53:07;19.40;99.90
16635;DHT22;8431;52.458;9.998;2023-09-19T13:55:36;19.30;99.90
16635;DHT22;8431;52.458;9.998;2023-09-19T13:58:04;19.10;99.90
16635;DHT22;8431;52.458;9.998;2023-09-19T14:00:32;19.10;99.90
16635;DHT22;8431;52.458;9.998;2023-09-19T14:02:59;19.10;99.90
16635;DHT22;8431;52.458;9.998;2023-09-19T14:05:27;19.20;99.90
16635;DHT22;8431;52.458;9.998;2023-09-19T14:07:55;19.40;99.90
16635;DHT22;8431;52.458;9.998;2023-09-19T14:10:23;19.20;99.90
16635;DHT22;8431;52.458;9.998;2023-09-19T14:12:52;19.30;99.90
16635;DHT22;8431;52.458;9.998;2023-09-19T14:15:19;19.40;99.90
16635;DHT22;8431;52.458;9.998;2023-09-19T14:17:47;19.30;99.90
16635;DHT22;8431;52.458;9.998;2023-09-19T14:20:14;19.30;99.90
16635;DHT22;8431;52.458;9.998;2023-09-19T14:22:41;19.40;99.90
16635;DHT22;8431;52.458;9.998;2023-09-19T14:25:08;19.20;99.90
16635;DHT22;8431;52.458;9.998;2023-09-19T14:27:35;18.90;99.90
16635;DHT22;8431;52.458;9.998;2023-09-19T14:30:20;19.00;99.90
16635;DHT22;8431;52.458;9.998;2023-09-19T14:32:47;19.20;99.90
16635;DHT22;8431;52.458;9.998;2023-09-19T14:35:14;19.00;99.90
16635;DHT22;8431;52.458;9.998;2023-09-19T14:37:42;18.90;99.90
16635;DHT22;8431;52.458;9.998;2023-09-19T14:40:09;18.90;99.90
16635;DHT22;8431;52.458;9.998;2023-09-19T14:42:39;19.00;99.90
16635;DHT22;8431;52.458;9.998;2023-09-19T14:45:07;19.20;99.90
16635;DHT22;8431;52.458;9.998;2023-09-19T14:47:36;19.20;99.90
16635;DHT22;8431;52.458;9.998;2023-09-19T14:50:03;19.30;99.90
16635;DHT22;8431;52.458;9.998;2023-09-19T14:52:35;19.40;99.90
16635;DHT22;8431;52.458;9.998;2023-09-19T14:55:02;19.50;99.90
16635;DHT22;8431;52.458;9.998;2023-09-19T14:57:30;19.20;99.90
16635;DHT22;8431;52.458;9.998;2023-09-19T14:59:57;19.10;99.90
16635;DHT22;8431;52.458;9.998;2023-09-19T15:02:24;19.20;99.90
16635;DHT22;8431;52.458;9.998;2023-09-19T15:04:53;19.30;99.90
16635;DHT22;8431;52.458;9.998;2023-09-19T15:07:20;19.20;99.90
16635;DHT22;8431;52.458;9.998;2023-09-19T15:09:47;19.10;99.90
16635;DHT22;8431;52.458;9.998;2023-09-19T15:12:13;19.00;99.90
16635;DHT22;8431;52.458;9.998;2023-09-19T15:14:42;19.00;99.90
16635;DHT22;8431;52.458;9.998;2023-09-19T15:17:09;19.10;99.90
16635;DHT22;8431;52.458;9.998;2023-09-19T15:19:36;19.10;99.90
16635;DHT22;8431;52.458;9.998;2023-09-19T15:22:05;19.00;99.90
16635;DHT22;8431;52.458;9.998;2023-09-19T15:24:32;19.10;99.90
16635;DHT22;8431;52.458;9.998;2023-09-19T15:26:59;19.10;99.90
16635;DHT22;8431;52.458;9.998;2023-09-19T15:29:26;19.20;99.90
16635;DHT22;8431;52.458;9.998;2023-09-19T15:31:55;19.30;99.90
16635;DHT22;8431;52.458;9.998;2023-09-19T15:34:24;19.30;99.90
16635;DHT22;8431;52.458;9.998;2023-09-19T15:36:51;19.10;99.90
16635;DHT22;8431;52.458;9.998;2023-09-19T15:39:19;19.20;99.90
16635;DHT22;8431;52.458;9.998;2023-09-19T15:41:48;19.30;99.90
16635;DHT22;8431;52.458;9.998;2023-09-19T15:44:18;19.00;99.90
16635;DHT22;8431;52.458;9.998;2023-09-19T15:46:46;19.00;99.90
16635;DHT22;8431;52.458;9.998;2023-09-19T15:49:14;19.10;99.90
16635;DHT22;8431;52.458;9.998;2023-09-19T15:51:41;19.20;99.90
16635;DHT22;8431;52.458;9.998;2023-09-19T15:54:11;19.20;99.90
16635;DHT22;8431;52.458;9.998;2023-09-19T15:56:40;19.00;99.90
16635;DHT22;8431;52.458;9.998;2023-09-19T15:59:08;18.70;99.90
16635;DHT22;8431;52.458;9.998;2023-09-19T16:01:36;18.70;99.90
16635;DHT22;8431;52.458;9.998;2023-09-19T16:04:04;18.60;99.90
16635;DHT22;8431;52.458;9.998;2023-09-19T16:06:34;18.40;99.90
16635;DHT22;8431;52.458;9.998;2023-09-19T16:09:02;18.40;99.90
16635;DHT22;8431;52.458;9.998;2023-09-19T16:11:31;18.40;99.90
16635;DHT22;8431;52.458;9.998;2023-09-19T16:14:00;18.50;99.90